Time;durP1;ratioP1;P1;durP2;ratioP2;P2;SDS_P1;SDS_P2;PMS_P1;PMS_P2;Temp;Humidity;BMP_temperature;BMP_pressure;BME280_temperature;BME280_humidity;BME280_pressure;Samples;Min_cycle;Max_cycle;Signal;HPM_P1;HPM_P2
2023/10/03 00:02:02;;;;;;;7.47;5.70;;;17.90;99.90;;;;;;1916563;75;21099;-80
2023/10/03 00:04:53;;;;;;;6.58;5.15;;;17.90;99.90;;;;;;1916596;75;21222;-79
2023/10/03 00:07:47;;;;;;;6.55;5.42;;;17.90;99.90;;;;;;1916320;75;21095;-79
2023/10/03 00:10:39;;;;;;;8.10;5.92;;;17.80;99.90;;;;;;1916340;75;21064;-79
2023/10/03 00:13:31;;;;;;;6.15;5.53;;;17.80;99.90;;;;;;1916527;75;21647;-79
2023/10/03 00:16:22;;;;;;;7.40;5.33;;;17.70;99.90;;;;;;1916140;75;21133;-79
2023/10/03 00:19:13;;;;;;;8.08;5.67;;;17.60;99.90;;;;;;1916638;75;21160;-80
2023/10/03 00:22:05;;;;;;;7.58;5.78;;;17.70;99.90;;;;;;1916284;75;21108;-79
2023/10/03 00:24:56;;;;;;;6.25;5.65;;;17.60;99.90;;;;;;1916341;75;21173;-79
2023/10/03 00:27:49;;;;;;;8.10;5.67;;;17.60;99.90;;;;;;1916535;75;21052;-80
2023/10/03 00:30:40;;;;;;;6.53;5.83;;;17.60;99.90;;;;;;1916587;75;21108;-80
2023/10/03 00:33:32;;;;;;;7.60;5.65;;;17.60;99.90;;;;;;1916493;74;21108;-80
2023/10/03 00:36:24;;;;;;;6.70;5.50;;;17.60;99.90;;;;;;1916463;75;21099;-79
2023/10/03 00:39:16;;;;;;;8.83;6.12;;;17.60;99.90;;;;;;1916438;75;21100;-79
2023/10/03 00:42:09;;;;;;;7.90;5.95;;;17.60;99.90;;;;;;1916379;75;21134;-79
2023/10/03 00:45:00;;;;;;;5.70;5.10;;;17.50;99.90;;;;;;1916381;75;21136;-79
2023/10/03 00:47:53;;;;;;;8.93;5.60;;;17.50;99.90;;;;;;1916403;75;21173;-79
2023/10/03 00:50:46;;;;;;;7.75;5.42;;;17.60;99.90;;;;;;1916445;75;21154;-79
2023/10/03 00:53:38;;;;;;;10.00;6.10;;;17.60;99.90;;;;;;1916606;75;21122;-79
2023/10/03 00:56:30;;;;;;;5.80;5.20;;;17.60;99.90;;;;;;1916535;75;21147;-79
2023/10/03 00:59:22;;;;;;;8.03;6.42;;;17.60;99.90;;;;;;1916702;75;21129;-79
2023/10/03 01:02:14;;;;;;;8.83;6.20;;;17.60;99.90;;;;;;1916540;75;21203;-79
2023/10/03 01:05:14;;;;;;;7.70;6.25;;;17.50;99.90;;;;;;1916561;75;21119;-79
2023/10/03 01:08:02;;;;;;;11.20;6.12;;;17.40;99.90;;;;;;1916660;75;21184;-78
2023/10/03 01:10:54;;;;;;;6.92;6.03;;;17.40;99.90;;;;;;1916429;75;21674;-79
2023/10/03 01:13:48;;;;;;;8.20;6.55;;;17.50;99.90;;;;;;1916590;75;21099;-79
2023/10/03 01:16:39;;;;;;;8.18;6.12;;;17.50;99.90;;;;;;1916399;75;21114;-79
2023/10/03 01:19:31;;;;;;;7.70;6.50;;;17.50;99.90;;;;;;1916481;75;21090;-79
2023/10/03 01:22:26;;;;;;;8.45;6.03;;;17.50;99.90;;;;;;1916563;75;21109;-79
2023/10/03 01:25:16;;;;;;;7.25;5.37;;;17.50;99.90;;;;;;1916348;75;21118;-79
2023/10/03 01:28:08;;;;;;;5.95;5.35;;;17.50;99.90;;;;;;1916505;75;21543;-79
2023/10/03 01:30:59;;;;;;;10.38;6.37;;;17.40;99.90;;;;;;1916637;75;21155;-79
2023/10/03 01:33:51;;;;;;;7.25;6.55;;;17.30;99.90;;;;;;1909737;74;21122;-80
2023/10/03 01:36:45;;;;;;;8.30;7.25;;;17.20;99.90;;;;;;1904326;75;21102;-79
2023/10/03 01:39:36;;;;;;;11.20;6.83;;;17.10;99.90;;;;;;1903934;75;21172;-79
2023/10/03 01:42:27;;;;;;;7.72;6.78;;;17.10;99.90;;;;;;1904048;75;21137;-79
2023/10/03 01:45:21;;;;;;;7.80;7.00;;;17.10;99.90;;;;;;1904165;75;21149;-79
2023/10/03 01:50:52;;;;;;;8.20;6.42;;;17.10;99.90;;;;;;1975904;72;27913;-78
2023/10/03 01:53:44;;;;;;;9.08;6.50;;;17.10;99.90;;;;;;1950624;73;21191;-79
2023/10/03 01:56:36;;;;;;;6.87;5.62;;;17.10;99.90;;;;;;1950947;73;21175;-79
2023/10/03 01:59:27;;;;;;;8.50;6.20;;;17.10;99.90;;;;;;1951037;73;21116;-79
2023/10/03 02:02:21;;;;;;;6.53;5.40;;;17.00;99.90;;;;;;1951121;73;21177;-79
2023/10/03 02:05:14;;;;;;;7.08;5.50;;;17.00;99.90;;;;;;1950961;73;21533;-79
2023/10/03 02:08:14;;;;;;;6.62;5.30;;;17.00;99.90;;;;;;1950987;73;21127;-79
2023/10/03 02:11:05;;;;;;;6.05;5.45;;;17.00;99.90;;;;;;1950986;73;21166;-79
2023/10/03 02:13:55;;;;;;;7.78;6.33;;;17.00;99.90;;;;;;1950758;73;21089;-79
2023/10/03 02:16:46;;;;;;;7.15;5.72;;;17.00;99.90;;;;;;1950426;73;21124;-79
2023/10/03 02:19:38;;;;;;;7.62;5.55;;;17.00;99.90;;;;;;1950624;73;21459;-80
2023/10/03 02:22:29;;;;;;;10.08;5.95;;;17.00;99.90;;;;;;1951153;73;21191;-80
2023/10/03 02:25:20;;;;;;;7.22;5.05;;;16.90;99.90;;;;;;1951057;73;21118;-80
2023/10/03 02:28:14;;;;;;;7.62;5.60;;;16.90;99.90;;;;;;1950985;73;21055;-79
2023/10/03 02:31:07;;;;;;;9.13;5.97;;;16.90;99.90;;;;;;1951042;73;21598;-79
2023/10/03 02:34:02;;;;;;;7.85;6.12;;;16.90;99.90;;;;;;1951065;73;21091;-80
2023/10/03 02:36:52;;;;;;;7.40;6.22;;;16.80;99.90;;;;;;1951091;73;21201;-80
2023/10/03 02:39:43;;;;;;;10.03;6.30;;;16.70;99.90;;;;;;1950805;73;21465;-80
2023/10/03 02:42:39;;;;;;;7.83;5.80;;;16.70;99.90;;;;;;1951023;73;21201;-79
2023/10/03 02:45:31;;;;;;;8.43;6.03;;;16.80;99.90;;;;;;1951097;73;21582;-79
2023/10/03 02:48:23;;;;;;;9.05;5.85;;;16.70;99.90;;;;;;1950981;73;21165;-79
2023/10/03 02:51:15;;;;;;;7.20;6.35;;;16.70;99.90;;;;;;1950869;73;21054;-79
2023/10/03 02:54:08;;;;;;;8.05;5.97;;;16.80;99.90;;;;;;1950760;73;21120;-79
2023/10/03 02:56:59;;;;;;;6.67;6.00;;;16.80;99.90;;;;;;1957401;73;21098;-79
2023/10/03 02:59:51;;;;;;;8.55;6.25;;;16.80;99.90;;;;;;1943133;73;21105;-79
2023/10/03 03:02:46;;;;;;;7.70;6.20;;;16.80;99.90;;;;;;1937252;73;21100;-79
2023/10/03 03:05:41;;;;;;;7.05;6.35;;;16.80;99.90;;;;;;1939286;73;21150;-79
2023/10/03 03:08:33;;;;;;;8.40;6.72;;;16.80;99.90;;;;;;1948159;73;21349;-79
2023/10/03 03:11:28;;;;;;;7.50;5.87;;;16.90;99.90;;;;;;1945714;73;21104;-79
2023/10/03 03:14:19;;;;;;;7.17;5.78;;;16.90;99.90;;;;;;1877414;75;21612;-79
2023/10/03 03:17:14;;;;;;;7.85;6.00;;;16.90;99.90;;;;;;1872261;76;21119;-79
2023/10/03 03:20:17;;;;;;;7.20;5.10;;;16.80;99.90;;;;;;1877361;76;21632;-79
2023/10/03 03:23:00;;;;;;;7.55;5.70;;;16.80;99.90;;;;;;1964090;73;21063;-79
2023/10/03 03:25:57;;;;;;;8.23;5.87;;;16.80;99.90;;;;;;1950098;73;21177;-79
2023/10/03 03:28:45;;;;;;;6.78;5.53;;;16.70;99.90;;;;;;1950255;73;21139;-79
2023/10/03 03:31:37;;;;;;;6.45;5.45;;;16.70;99.90;;;;;;1949994;73;21087;-79
2023/10/03 03:34:30;;;;;;;8.65;5.95;;;16.70;99.90;;;;;;1949721;73;21087;-80
2023/10/03 03:37:23;;;;;;;8.75;6.30;;;16.50;99.90;;;;;;1937025;74;21137;-79
2023/10/03 03:40:26;;;;;;;6.70;6.03;;;16.40;99.90;;;;;;1950037;73;21142;-79
2023/10/03 03:43:08;;;;;;;10.53;5.70;;;16.40;99.90;;;;;;1932377;73;21621;-79
2023/10/03 03:45:59;;;;;;;7.40;6.28;;;16.30;99.90;;;;;;1937045;74;21102;-79
2023/10/03 03:48:51;;;;;;;8.40;5.85;;;16.30;99.90;;;;;;1949923;73;21176;-79
2023/10/03 03:51:42;;;;;;;7.12;6.17;;;16.50;99.90;;;;;;1936910;74;21075;-79
2023/10/03 03:54:36;;;;;;;6.62;5.90;;;16.40;99.90;;;;;;1949290;73;21195;-79
2023/10/03 03:57:29;;;;;;;6.50;5.65;;;16.40;99.90;;;;;;1928951;73;21056;-79
2023/10/03 04:00:22;;;;;;;9.65;6.35;;;16.40;99.90;;;;;;1949683;73;21147;-79
2023/10/03 04:03:14;;;;;;;8.43;6.12;;;16.30;99.90;;;;;;1949584;73;21225;-79
2023/10/03 04:06:07;;;;;;;8.30;6.00;;;16.30;99.90;;;;;;1932575;73;21177;-79
2023/10/03 04:08:58;;;;;;;7.17;5.75;;;16.30;99.90;;;;;;1915859;75;21113;-79
2023/10/03 04:11:51;;;;;;;8.05;6.53;;;16.30;99.90;;;;;;1905606;74;21126;-79
2023/10/03 04:14:43;;;;;;;6.85;6.08;;;16.40;99.90;;;;;;1918305;74;21055;-79
2023/10/03 04:17:35;;;;;;;6.72;5.65;;;16.30;99.90;;;;;;1916375;75;21196;-79
2023/10/03 04:20:30;;;;;;;7.35;6.00;;;16.40;99.90;;;;;;1916495;75;21095;-79
2023/10/03 04:23:19;;;;;;;7.55;6.25;;;16.40;99.90;;;;;;1916576;75;21192;-79
2023/10/03 04:26:12;;;;;;;6.65;6.00;;;16.30;99.90;;;;;;1916444;75;21673;-79
2023/10/03 04:29:03;;;;;;;8.83;6.55;;;16.30;99.90;;;;;;1905117;74;21609;-79
2023/10/03 04:31:58;;;;;;;12.65;6.25;;;16.20;99.90;;;;;;1904171;74;21184;-80
2023/10/03 04:34:49;;;;;;;9.70;7.40;;;16.30;99.90;;;;;;1911301;74;21624;-80
2023/10/03 04:37:42;;;;;;;8.58;7.62;;;16.20;99.90;;;;;;1903999;75;21095;-80
2023/10/03 04:40:34;;;;;;;9.83;7.95;;;16.30;99.90;;;;;;1910159;74;21071;-80
2023/10/03 04:43:29;;;;;;;11.30;7.90;;;16.30;99.90;;;;;;1921898;74;21677;-80
2023/10/03 04:46:18;;;;;;;11.60;9.05;;;16.30;99.90;;;;;;1911781;74;21170;-80
2023/10/03 04:49:09;;;;;;;10.78;7.33;;;16.30;99.90;;;;;;1917158;74;21129;-79
2023/10/03 04:52:01;;;;;;;10.58;7.90;;;16.30;99.90;;;;;;1916659;74;21082;-79
2023/10/03 04:54:52;;;;;;;10.95;7.28;;;16.30;99.90;;;;;;1906161;74;21095;-80
2023/10/03 04:57:45;;;;;;;12.35;8.25;;;16.30;99.90;;;;;;1908449;74;21184;-79
2023/10/03 05:00:36;;;;;;;9.33;8.15;;;16.30;99.90;;;;;;1909882;74;21359;-79
2023/10/03 05:03:28;;;;;;;10.38;7.35;;;16.30;99.90;;;;;;1911485;74;21063;-79
2023/10/03 05:06:21;;;;;;;9.50;7.55;;;16.40;99.90;;;;;;1916940;74;21087;-79
2023/10/03 05:09:15;;;;;;;8.70;7.67;;;16.30;99.90;;;;;;1925387;74;21051;-79
2023/10/03 05:12:06;;;;;;;9.70;7.17;;;16.40;99.90;;;;;;1926012;74;21102;-79
2023/10/03 05:14:58;;;;;;;11.68;7.03;;;16.40;99.90;;;;;;1924027;74;21152;-79
2023/10/03 05:17:50;;;;;;;10.23;7.10;;;16.40;99.90;;;;;;1921239;74;21667;-79
2023/10/03 05:20:42;;;;;;;11.35;7.65;;;16.40;99.90;;;;;;1915792;74;21177;-79
2023/10/03 05:23:33;;;;;;;10.78;7.67;;;16.40;99.90;;;;;;1903926;74;21123;-79
2023/10/03 05:26:26;;;;;;;9.03;7.10;;;16.40;99.90;;;;;;1903851;75;21104;-79
2023/10/03 05:29:17;;;;;;;9.63;7.22;;;16.40;99.90;;;;;;1911281;74;21099;-79
2023/10/03 05:32:09;;;;;;;9.23;7.12;;;16.30;99.90;;;;;;1916194;74;21212;-79
2023/10/03 05:35:01;;;;;;;8.65;6.95;;;16.30;99.90;;;;;;1904195;74;21201;-79
2023/10/03 05:37:52;;;;;;;10.68;6.87;;;16.30;99.90;;;;;;1913771;74;21577;-79
2023/10/03 05:40:44;;;;;;;9.50;6.87;;;16.30;99.90;;;;;;1903812;74;21105;-80
2023/10/03 05:43:36;;;;;;;8.55;6.87;;;16.30;99.90;;;;;;1906394;74;21091;-80
2023/10/03 05:46:28;;;;;;;10.63;7.08;;;16.30;99.90;;;;;;1909983;74;21184;-80
2023/10/03 05:49:20;;;;;;;9.70;7.30;;;16.30;99.90;;;;;;1918775;74;21111;-80
2023/10/03 05:52:11;;;;;;;12.60;7.67;;;16.30;99.90;;;;;;1909935;74;21168;-79
2023/10/03 05:55:04;;;;;;;13.13;8.45;;;16.40;99.90;;;;;;1905858;74;21103;-79
2023/10/03 05:58:00;;;;;;;9.63;7.00;;;16.40;99.90;;;;;;1917839;74;21613;-79
2023/10/03 06:00:54;;;;;;;11.70;7.30;;;16.30;99.90;;;;;;1898782;75;21151;-80
2023/10/03 06:03:48;;;;;;;11.90;7.58;;;16.30;99.90;;;;;;1898260;74;21116;-80
2023/10/03 06:06:49;;;;;;;11.73;7.05;;;16.20;99.90;;;;;;1915715;75;21656;-80
2023/10/03 06:09:41;;;;;;;11.85;7.22;;;16.20;99.90;;;;;;1916140;75;21170;-80
2023/10/03 06:12:36;;;;;;;10.95;7.03;;;16.30;99.90;;;;;;1916024;75;21124;-79
2023/10/03 06:15:29;;;;;;;8.13;6.65;;;16.20;99.90;;;;;;1915926;75;21217;-81
2023/10/03 06:18:21;;;;;;;8.63;7.55;;;16.30;99.90;;;;;;1915838;75;21543;-81
2023/10/03 06:21:33;;;;;;;9.48;6.85;;;16.30;99.90;;;;;;1915815;75;21071;-80
2023/10/03 06:24:27;;;;;;;13.18;7.50;;;16.30;99.90;;;;;;1895240;75;21139;-79
2023/10/03 06:27:18;;;;;;;10.58;7.55;;;16.20;99.90;;;;;;1903980;75;21075;-80
2023/10/03 06:30:14;;;;;;;11.38;7.03;;;16.20;99.90;;;;;;1895353;75;21261;-81
2023/10/03 06:33:08;;;;;;;11.38;7.10;;;16.20;99.90;;;;;;1911484;74;21175;-80
2023/10/03 06:35:59;;;;;;;13.53;7.50;;;16.10;99.90;;;;;;1931236;73;21625;-79
2023/10/03 06:38:52;;;;;;;10.32;7.67;;;16.20;99.90;;;;;;1903720;74;21137;-80
2023/10/03 06:41:44;;;;;;;10.05;7.42;;;16.20;99.90;;;;;;1916063;75;21167;-80
2023/10/03 06:44:40;;;;;;;10.98;7.87;;;16.30;99.90;;;;;;1915883;75;21125;-80
2023/10/03 06:47:35;;;;;;;10.30;6.67;;;16.40;99.90;;;;;;1899565;75;21205;-80
2023/10/03 06:50:26;;;;;;;9.68;7.35;;;16.40;99.90;;;;;;1903552;75;22085;-80
2023/10/03 06:53:18;;;;;;;10.70;7.50;;;16.50;99.90;;;;;;1915861;75;21399;-80
2023/10/03 06:56:10;;;;;;;9.65;7.33;;;16.60;99.90;;;;;;1915733;75;21125;-80
2023/10/03 06:59:05;;;;;;;11.35;7.75;;;16.60;99.90;;;;;;1914845;75;21668;-80
2023/10/03 07:01:56;;;;;;;13.72;7.62;;;16.60;99.90;;;;;;1900551;75;21213;-80
2023/10/03 07:04:49;;;;;;;11.40;7.90;;;16.60;99.90;;;;;;1915903;75;21621;-79
2023/10/03 07:07:58;;;;;;;16.20;8.10;;;16.60;99.90;;;;;;1915702;75;21098;-80
2023/10/03 07:10:57;;;;;;;15.63;8.23;;;16.60;99.90;;;;;;1899593;75;21172;-80
2023/10/03 07:13:49;;;;;;;;;;;16.70;99.90;;;;;;1918833;75;21580;-79
2023/10/03 07:16:41;;;;;;;15.70;7.97;;;16.70;99.90;;;;;;1915788;75;20189;-80
2023/10/03 07:19:33;;;;;;;9.53;7.47;;;16.70;99.90;;;;;;1917072;74;21062;-81
2023/10/03 07:22:26;;;;;;;14.43;8.83;;;16.80;99.90;;;;;;1919779;75;21151;-80
2023/10/03 07:25:18;;;;;;;14.58;8.05;;;17.00;99.90;;;;;;1910188;75;21209;-80
2023/10/03 07:28:10;;;;;;;11.78;8.13;;;17.10;99.90;;;;;;1906306;74;21180;-80
2023/10/03 07:31:02;;;;;;;13.25;8.45;;;17.10;99.90;;;;;;1911542;74;21111;-80
2023/10/03 07:33:56;;;;;;;12.37;7.78;;;17.10;99.90;;;;;;1917950;75;21275;-80
2023/10/03 07:36:48;;;;;;;12.53;7.55;;;17.20;99.90;;;;;;1917366;75;21103;-80
2023/10/03 07:39:39;;;;;;;12.00;7.75;;;17.30;99.90;;;;;;1903200;75;21181;-80
2023/10/03 07:42:35;;;;;;;10.30;7.72;;;17.40;99.90;;;;;;1905200;75;21112;-80
2023/10/03 07:45:27;;;;;;;19.30;9.15;;;17.40;99.90;;;;;;1905459;75;21178;-79
2023/10/03 07:48:21;;;;;;;13.83;7.95;;;17.50;99.90;;;;;;1897737;75;21152;-80
2023/10/03 07:51:17;;;;;;;10.18;8.50;;;17.50;99.90;;;;;;1898942;75;21138;-80
2023/10/03 07:54:11;;;;;;;11.55;8.33;;;17.60;99.90;;;;;;1905640;75;21123;-80
2023/10/03 07:57:06;;;;;;;13.65;7.58;;;17.70;99.90;;;;;;1904625;75;21657;-80
2023/10/03 07:59:58;;;;;;;9.23;7.78;;;17.70;99.90;;;;;;1897379;75;21119;-79
2023/10/03 08:02:50;;;;;;;11.00;7.80;;;17.80;99.90;;;;;;1919171;74;21615;-80
2023/10/03 08:08:25;;;;;;;9.83;7.72;;;17.90;99.90;;;;;;2060446;69;22143;-79
2023/10/03 08:11:22;;;;;;;10.43;7.92;;;18.00;99.90;;;;;;2016202;70;21058;-80
2023/10/03 08:14:17;;;;;;;12.68;6.90;;;18.10;99.90;;;;;;2016051;71;21032;-80
2023/10/03 08:17:09;;;;;;;10.68;6.67;;;18.20;99.90;;;;;;2016175;71;21031;-80
2023/10/03 08:20:04;;;;;;;8.48;7.50;;;18.30;99.90;;;;;;2016393;71;21086;-81
2023/10/03 08:23:03;;;;;;;12.40;8.35;;;18.40;99.90;;;;;;2016545;71;21116;-81
2023/10/03 08:25:56;;;;;;;11.25;7.28;;;18.40;99.90;;;;;;2016460;71;21129;-81
2023/10/03 08:28:45;;;;;;;12.33;7.78;;;18.50;99.90;;;;;;2011804;71;21402;-80
2023/10/03 08:31:38;;;;;;;9.28;7.55;;;18.60;99.90;;;;;;2013105;71;21071;-79
2023/10/03 08:34:32;;;;;;;13.55;8.13;;;18.60;99.90;;;;;;1979325;72;21098;-79
2023/10/03 08:37:47;;;;;;;13.40;7.05;;;18.70;99.90;;;;;;1913489;74;21176;-79
2023/10/03 08:40:40;;;;;;;8.08;5.97;;;18.80;99.90;;;;;;2022756;71;21031;-79
2023/10/03 08:43:37;;;;;;;8.80;6.20;;;18.80;99.90;;;;;;2022309;71;21597;-80
2023/10/03 08:46:30;;;;;;;11.00;5.90;;;19.00;99.90;;;;;;2023182;71;21081;-80
2023/10/03 08:49:23;;;;;;;7.22;5.20;;;19.00;99.90;;;;;;2021020;70;21147;-80
2023/10/03 08:52:19;;;;;;;10.53;5.85;;;19.10;99.90;;;;;;1979880;72;21156;-80
2023/10/03 08:55:19;;;;;;;12.28;6.40;;;19.30;99.90;;;;;;1979297;72;21581;-79
2023/10/03 08:58:15;;;;;;;15.38;6.50;;;19.50;99.90;;;;;;1980132;72;21089;-80
2023/10/03 09:01:17;;;;;;;9.20;6.00;;;19.50;99.90;;;;;;1979681;72;21093;-80
2023/10/03 09:04:05;;;;;;;8.25;5.42;;;19.60;99.90;;;;;;1980143;72;21556;-79
2023/10/03 09:07:00;;;;;;;9.20;5.90;;;19.70;99.90;;;;;;1991161;71;21154;-80
2023/10/03 09:09:49;;;;;;;8.88;5.80;;;19.60;99.90;;;;;;2016172;71;21031;-80
2023/10/03 09:12:47;;;;;;;9.98;5.97;;;19.70;99.90;;;;;;1986368;71;21180;-80
2023/10/03 09:15:42;;;;;;;9.05;6.20;;;19.80;99.90;;;;;;1979381;72;21107;-80
2023/10/03 09:18:40;;;;;;;10.48;7.65;;;19.80;99.90;;;;;;1979430;72;21196;-80
2023/10/03 09:21:28;;;;;;;8.55;6.10;;;19.80;99.90;;;;;;1980877;72;21099;-80
2023/10/03 09:24:21;;;;;;;8.50;5.33;;;19.90;99.90;;;;;;1985640;72;21083;-80
2023/10/03 09:27:17;;;;;;;8.00;4.95;;;20.00;99.90;;;;;;1985926;72;21039;-80
2023/10/03 09:30:22;;;;;;;6.10;5.15;;;20.00;99.90;;;;;;1985752;72;21113;-80
2023/10/03 09:33:05;;;;;;;6.78;5.20;;;20.10;99.90;;;;;;1985854;72;21090;-80
2023/10/03 09:36:00;;;;;;;9.03;5.58;;;20.20;99.90;;;;;;1985645;72;21152;-80
2023/10/03 09:38:53;;;;;;;7.33;5.62;;;20.20;99.90;;;;;;1984317;72;21082;-80
2023/10/03 09:41:44;;;;;;;7.45;5.72;;;20.30;99.90;;;;;;1982238;71;21165;-80
2023/10/03 09:44:39;;;;;;;9.18;5.70;;;20.40;99.90;;;;;;1984675;72;21147;-80
2023/10/03 09:47:31;;;;;;;6.15;5.08;;;20.40;99.90;;;;;;1985705;72;21160;-80
2023/10/03 09:50:26;;;;;;;8.98;5.58;;;20.50;99.90;;;;;;1985724;72;21152;-80
2023/10/03 09:53:18;;;;;;;7.15;4.90;;;20.50;99.90;;;;;;1984188;72;21472;-80
2023/10/03 09:56:13;;;;;;;7.05;5.58;;;20.60;99.90;;;;;;1980440;72;21258;-80
2023/10/03 09:59:09;;;;;;;10.72;6.00;;;20.70;99.90;;;;;;1985500;72;21573;-80
2023/10/03 10:02:00;;;;;;;8.50;5.25;;;20.70;99.90;;;;;;1985685;72;21091;-80
2023/10/03 10:04:53;;;;;;;7.20;5.30;;;20.80;99.90;;;;;;1980033;72;21194;-80
2023/10/03 10:07:50;;;;;;;8.38;5.42;;;20.90;99.90;;;;;;1985548;72;21137;-80
2023/10/03 10:10:43;;;;;;;7.30;5.45;;;21.00;99.90;;;;;;1986061;72;21098;-80
2023/10/03 10:13:37;;;;;;;8.95;5.90;;;21.10;99.90;;;;;;1985668;72;21072;-80
2023/10/03 10:16:29;;;;;;;8.33;5.53;;;21.20;99.90;;;;;;1985647;72;21032;-80
2023/10/03 10:19:21;;;;;;;9.30;5.80;;;21.30;99.90;;;;;;1985261;72;21083;-81
2023/10/03 10:22:13;;;;;;;8.40;5.60;;;21.40;99.90;;;;;;1985263;72;21044;-80
2023/10/03 10:25:26;;;;;;;9.63;5.92;;;21.50;99.90;;;;;;1985380;72;21039;-80
2023/10/03 10:28:21;;;;;;;8.78;5.25;;;21.60;99.90;;;;;;1985451;72;21091;-79
2023/10/03 10:31:24;;;;;;;10.15;5.72;;;21.70;99.90;;;;;;1985443;72;21075;-80
2023/10/03 10:34:37;;;;;;;8.30;5.00;;;21.80;99.90;;;;;;1985427;72;21370;-80
2023/10/03 10:37:52;;;;;;;13.32;5.50;;;22.00;99.90;;;;;;1985045;72;21039;-80
2023/10/03 10:41:32;;;;;;;8.80;5.28;;;22.10;99.90;;;;;;1984786;72;21127;-80
2023/10/03 10:44:31;;;;;;;8.95;5.12;;;22.20;99.90;;;;;;1985001;72;21031;-80
2023/10/03 10:47:35;;;;;;;8.88;5.20;;;22.30;99.90;;;;;;1984636;72;21748;-80
2023/10/03 10:51:20;;;;;;;9.48;6.17;;;22.40;99.90;;;;;;1985377;72;21051;-80
2023/10/03 10:54:11;;;;;;;8.00;5.55;;;22.50;99.90;;;;;;1985381;72;21075;-80
2023/10/03 10:57:07;;;;;;;6.92;5.22;;;22.60;99.90;;;;;;1985280;72;21140;-80
2023/10/03 11:00:04;;;;;;;7.70;5.33;;;22.70;99.90;;;;;;1985364;72;21480;-80
2023/10/03 11:02:56;;;;;;;7.80;5.08;;;22.80;99.90;;;;;;1985540;72;21142;-80
2023/10/03 11:06:01;;;;;;;9.08;5.25;;;22.90;99.90;;;;;;1984681;72;21063;-80
2023/10/03 11:08:58;;;;;;;8.80;5.15;;;23.00;99.90;;;;;;1984643;71;21091;-80
2023/10/03 11:11:55;;;;;;;5.95;4.92;;;23.10;99.90;;;;;;1985258;72;21111;-80
2023/10/03 11:17:28;;;;;;;7.67;5.42;;;23.20;99.90;;;;;;1956995;72;22151;-80
2023/10/03 11:20:20;;;;;;;7.90;5.78;;;23.40;99.90;;;;;;1916574;75;21273;-80
2023/10/03 11:23:18;;;;;;;8.25;5.03;;;23.50;99.90;;;;;;1916704;75;21208;-80
2023/10/03 11:26:16;;;;;;;6.37;4.75;;;23.70;99.90;;;;;;1916793;75;21177;-80
2023/10/03 11:29:08;;;;;;;7.83;4.83;;;23.80;99.90;;;;;;1916687;75;21176;-80
2023/10/03 11:32:01;;;;;;;6.22;4.65;;;23.90;99.90;;;;;;1916869;75;21063;-80
2023/10/03 11:34:53;;;;;;;8.30;4.42;;;24.00;99.90;;;;;;1916946;75;21098;-80
2023/10/03 11:37:47;;;;;;;7.17;4.45;;;24.00;99.90;;;;;;1916539;75;21047;-80
2023/10/03 11:40:44;;;;;;;5.80;4.62;;;24.10;99.90;;;;;;1916654;75;21127;-80
2023/10/03 11:43:35;;;;;;;8.70;4.83;;;24.20;99.90;;;;;;1916817;75;21059;-79
2023/10/03 11:46:26;;;;;;;7.60;4.60;;;24.30;99.90;;;;;;1916762;75;21616;-79
2023/10/03 11:49:18;;;;;;;5.10;4.22;;;24.40;99.90;;;;;;1916856;75;21143;-80
2023/10/03 11:52:10;;;;;;;6.50;4.42;;;24.50;99.90;;;;;;1916345;75;21102;-80
2023/10/03 11:55:02;;;;;;;8.73;4.25;;;24.60;99.90;;;;;;1916227;75;21573;-80
2023/10/03 11:57:54;;;;;;;7.83;4.30;;;24.60;99.90;;;;;;1916639;75;21463;-80
2023/10/03 12:00:46;;;;;;;6.20;4.42;;;24.60;99.90;;;;;;1916734;75;21539;-80
2023/10/03 12:03:37;;;;;;;5.37;4.10;;;24.70;99.90;;;;;;1916815;75;21180;-80
2023/10/03 12:06:30;;;;;;;9.30;4.55;;;24.80;99.90;;;;;;1915130;75;21092;-80
2023/10/03 12:09:23;;;;;;;5.92;4.17;;;24.80;99.90;;;;;;1915084;75;21087;-80
2023/10/03 12:12:14;;;;;;;9.25;4.00;;;24.90;99.90;;;;;;1915009;75;21063;-80
2023/10/03 12:15:12;;;;;;;5.95;4.22;;;24.90;99.90;;;;;;1915330;75;21106;-80
2023/10/03 12:18:01;;;;;;;7.12;4.08;;;25.00;99.90;;;;;;1902469;75;21184;-80
2023/10/03 12:20:53;;;;;;;6.05;4.42;;;25.10;99.90;;;;;;1900404;75;21581;-80
2023/10/03 12:23:45;;;;;;;4.90;4.35;;;25.20;99.90;;;;;;1900195;75;21126;-80
2023/10/03 12:26:37;;;;;;;5.50;4.08;;;25.20;99.90;;;;;;1900437;75;21147;-80
2023/10/03 12:29:32;;;;;;;5.37;4.28;;;25.30;99.90;;;;;;1899824;75;21128;-80
2023/10/03 12:32:21;;;;;;;8.35;3.83;;;25.40;99.90;;;;;;1899503;75;21234;-80
2023/10/03 12:35:13;;;;;;;4.65;4.12;;;25.40;99.90;;;;;;1899866;75;21523;-80
2023/10/03 12:38:06;;;;;;;7.30;4.10;;;25.50;99.90;;;;;;1899908;75;21098;-80
2023/10/03 12:40:57;;;;;;;7.00;4.15;;;25.50;99.90;;;;;;1899738;75;21180;-80
2023/10/03 12:43:50;;;;;;;4.80;3.80;;;25.60;99.90;;;;;;1899681;75;21153;-80
2023/10/03 12:46:41;;;;;;;6.45;4.17;;;25.60;99.90;;;;;;1899837;75;21110;-80
2023/10/03 12:49:32;;;;;;;5.90;4.60;;;25.70;99.90;;;;;;1899663;75;21098;-79
2023/10/03 12:52:24;;;;;;;5.85;3.80;;;25.80;99.90;;;;;;1899883;75;21156;-80
2023/10/03 12:55:16;;;;;;;6.72;4.10;;;25.80;99.90;;;;;;1899828;75;21095;-80
2023/10/03 12:58:08;;;;;;;6.97;3.98;;;25.90;99.90;;;;;;1899846;75;21106;-80
2023/10/03 13:01:00;;;;;;;7.37;4.08;;;26.00;99.90;;;;;;1899515;75;21092;-80
2023/10/03 13:03:52;;;;;;;4.53;3.80;;;26.00;99.90;;;;;;1899815;75;21131;-80
2023/10/03 13:06:45;;;;;;;7.50;4.00;;;26.20;99.90;;;;;;1899968;75;21122;-80
2023/10/03 13:09:37;;;;;;;6.50;3.77;;;26.30;99.90;;;;;;1899692;75;21087;-80
2023/10/03 13:12:29;;;;;;;6.53;3.67;;;26.30;99.90;;;;;;1899992;75;21109;-80
2023/10/03 13:15:21;;;;;;;6.17;4.00;;;26.40;99.90;;;;;;1900071;75;21111;-80
2023/10/03 13:18:13;;;;;;;5.80;3.70;;;26.50;99.90;;;;;;1901193;75;21338;-80
2023/10/03 13:21:05;;;;;;;5.42;3.65;;;26.50;99.90;;;;;;1902264;75;21602;-80
2023/10/03 13:23:57;;;;;;;4.70;3.85;;;26.60;99.90;;;;;;1902133;75;21201;-79
2023/10/03 13:26:48;;;;;;;5.20;2.70;;;26.60;99.90;;;;;;1902069;75;21555;-80
2023/10/03 13:29:40;;;;;;;2.10;1.90;;;26.70;99.90;;;;;;1902019;75;21063;-79
2023/10/03 13:32:32;;;;;;;7.42;3.83;;;27.00;99.90;;;;;;1914564;75;21168;-79
2023/10/03 13:35:24;;;;;;;8.10;3.02;;;27.00;99.90;;;;;;1902069;75;21153;-80
2023/10/03 13:38:17;;;;;;;2.25;1.90;;;27.00;99.90;;;;;;1902194;75;21172;-80
2023/10/03 13:41:10;;;;;;;3.12;2.52;;;27.10;99.90;;;;;;1901803;75;21146;-80
2023/10/03 13:44:02;;;;;;;3.20;1.92;;;27.20;99.90;;;;;;1914463;75;21201;-80
2023/10/03 13:46:53;;;;;;;2.60;2.27;;;27.30;99.90;;;;;;1913748;75;21098;-80
2023/10/03 13:49:45;;;;;;;3.22;2.00;;;27.10;99.90;;;;;;1914300;75;21173;-80
2023/10/03 13:52:38;;;;;;;4.80;2.92;;;27.20;99.90;;;;;;1902102;75;21180;-80
2023/10/03 13:55:29;;;;;;;4.22;3.02;;;27.40;99.90;;;;;;1901957;75;21099;-80
2023/10/03 13:58:20;;;;;;;2.52;1.90;;;27.30;99.90;;;;;;1902029;75;21115;-80
2023/10/03 14:01:14;;;;;;;3.75;2.60;;;27.40;99.90;;;;;;1902014;75;21180;-80
2023/10/03 14:04:08;;;;;;;3.60;2.33;;;27.50;99.90;;;;;;1901924;75;21139;-80
2023/10/03 14:06:59;;;;;;;2.80;2.20;;;27.90;99.90;;;;;;1902018;75;21060;-80
2023/10/03 14:09:50;;;;;;;3.30;2.30;;;28.80;99.90;;;;;;1913619;75;21051;-80
2023/10/03 14:12:41;;;;;;;3.67;2.10;;;29.30;99.90;;;;;;1913500;75;21573;-80
2023/10/03 14:15:35;;;;;;;2.95;2.35;;;29.60;99.90;;;;;;1913908;75;21110;-82
2023/10/03 14:18:28;;;;;;;3.10;2.15;;;30.00;99.90;;;;;;1901120;75;21130;-80
2023/10/03 14:21:21;;;;;;;3.22;2.50;;;29.70;99.90;;;;;;1899602;75;21338;-80
2023/10/03 14:24:17;;;;;;;2.60;2.40;;;29.80;99.90;;;;;;1899588;75;21243;-80
2023/10/03 14:27:08;;;;;;;3.77;2.62;;;29.70;99.90;;;;;;1899467;75;21137;-80
2023/10/03 14:30:01;;;;;;;3.27;2.30;;;29.40;99.90;;;;;;1899569;75;21093;-80
2023/10/03 14:32:55;;;;;;;4.00;2.50;;;29.50;99.90;;;;;;1899616;75;21095;-80
2023/10/03 14:35:47;;;;;;;3.02;2.22;;;29.80;99.90;;;;;;1899175;75;21118;-80
2023/10/03 14:38:39;;;;;;;3.10;2.47;;;29.50;99.90;;;;;;1899464;75;21129;-81
2023/10/03 14:41:31;;;;;;;2.67;2.47;;;28.80;99.90;;;;;;1899997;75;21580;-82
2023/10/03 14:44:22;;;;;;;3.50;2.77;;;28.40;99.90;;;;;;1899780;75;21107;-80
2023/10/03 14:47:15;;;;;;;4.37;2.37;;;28.10;99.90;;;;;;1899806;75;21176;-80
2023/10/03 14:50:10;;;;;;;2.95;2.60;;;27.90;99.90;;;;;;1899640;75;21477;-80
2023/10/03 14:53:02;;;;;;;3.25;2.95;;;27.80;99.90;;;;;;1900020;75;21163;-80
2023/10/03 14:55:56;;;;;;;4.00;2.47;;;27.70;99.90;;;;;;1899690;75;21099;-81
2023/10/03 14:58:47;;;;;;;2.62;2.42;;;27.70;99.90;;;;;;1899600;75;21164;-80
2023/10/03 15:01:38;;;;;;;3.87;2.45;;;27.70;99.90;;;;;;1899580;75;21110;-81
2023/10/03 15:04:31;;;;;;;2.90;2.62;;;27.60;99.90;;;;;;1899103;75;21142;-81
2023/10/03 15:07:22;;;;;;;5.42;2.50;;;27.50;99.90;;;;;;1868667;77;21158;-80
2023/10/03 15:10:14;;;;;;;3.83;2.50;;;27.40;99.90;;;;;;1869206;77;21097;-80